Time;durP1;ratioP1;P1;durP2;ratioP2;P2;SDS_P1;SDS_P2;PMS_P1;PMS_P2;Temp;Humidity;BMP_temperature;BMP_pressure;BME280_temperature;BME280_humidity;BME280_pressure;Samples;Min_cycle;Max_cycle;Signal;HPM_P1;HPM_P2
2021/08/14 00:00:05;;;;;;;3.77;3.17;;;;;;;19.45;100.00;97197.50;5073287;28;20246;-81
2021/08/14 00:02:32;;;;;;;6.30;3.80;;;;;;;19.52;100.00;97198.41;5072864;28;20251;-80
2021/08/14 00:05:00;;;;;;;3.70;3.10;;;;;;;19.34;100.00;97195.38;5073016;28;20279;-80
2021/08/14 00:07:27;;;;;;;4.33;3.03;;;;;;;19.28;100.00;97193.47;5072472;28;20221;-80
2021/08/14 00:09:56;;;;;;;3.37;3.07;;;;;;;19.23;100.00;97194.03;5072958;28;20289;-80
2021/08/14 00:12:23;;;;;;;4.00;3.53;;;;;;;19.27;100.00;97194.47;5072825;28;20274;-81
2021/08/14 00:14:50;;;;;;;4.17;3.77;;;;;;;19.24;100.00;97191.16;5072841;28;20237;-80
2021/08/14 00:17:17;;;;;;;6.43;3.67;;;;;;;19.14;100.00;97189.84;5072783;28;20251;-80
2021/08/14 00:19:45;;;;;;;4.13;3.37;;;;;;;19.04;100.00;97190.16;5072583;28;20197;-80
2021/08/14 00:22:12;;;;;;;3.97;3.50;;;;;;;18.95;100.00;97188.63;5072803;28;20645;-81
2021/08/14 00:24:39;;;;;;;3.73;3.43;;;;;;;19.05;100.00;97190.97;5072894;28;20224;-81
2021/08/14 00:27:08;;;;;;;3.80;3.50;;;;;;;19.18;100.00;97194.59;5072260;28;20227;-81
2021/08/14 00:29:36;;;;;;;5.20;3.13;;;;;;;19.08;100.00;97191.41;5072349;28;20201;-80
2021/08/14 00:32:04;;;;;;;5.27;4.20;;;;;;;18.97;100.00;97197.25;5072277;28;20201;-81
2021/08/14 00:34:31;;;;;;;3.73;3.13;;;;;;;19.01;100.00;97193.19;5072472;28;20301;-81
2021/08/14 00:36:58;;;;;;;3.33;3.03;;;;;;;19.16;100.00;97190.50;5071416;28;20666;-81
2021/08/14 00:39:25;;;;;;;3.47;3.17;;;;;;;19.02;100.00;97189.53;5072301;28;20196;-81
2021/08/14 00:41:53;;;;;;;5.60;3.23;;;;;;;19.03;100.00;97177.84;5072426;28;20652;-81
2021/08/14 00:44:21;;;;;;;4.40;3.30;;;;;;;19.08;100.00;97183.41;5072295;28;20197;-81
2021/08/14 00:46:49;;;;;;;3.43;3.13;;;;;;;19.04;100.00;97184.81;5071779;28;20221;-81
2021/08/14 00:49:16;;;;;;;3.63;3.30;;;;;;;19.14;100.00;97193.31;5072108;28;20247;-81
2021/08/14 00:51:43;;;;;;;4.73;3.27;;;;;;;19.24;100.00;97190.34;5072258;28;20718;-81
2021/08/14 00:54:11;;;;;;;3.60;3.30;;;;;;;19.14;100.00;97192.50;5071985;28;20236;-80
2021/08/14 00:56:39;;;;;;;3.10;2.90;;;;;;;19.16;100.00;97193.97;5071798;28;20727;-80
2021/08/14 00:59:07;;;;;;;3.40;3.10;;;;;;;18.93;100.00;97188.81;5072020;28;20345;-81
2021/08/14 01:01:36;;;;;;;3.23;3.00;;;;;;;19.06;100.00;97185.47;5072022;28;20193;-81
2021/08/14 01:04:04;;;;;;;3.17;2.87;;;;;;;19.06;100.00;97188.13;5071665;28;20247;-80
2021/08/14 01:06:31;;;;;;;4.13;3.27;;;;;;;18.93;100.00;97188.00;5071870;28;20679;-81
2021/08/14 01:08:59;;;;;;;4.30;3.20;;;;;;;18.90;100.00;97181.19;5071885;28;20685;-80
2021/08/14 01:11:26;;;;;;;3.50;3.20;;;;;;;18.96;100.00;97191.09;5072200;28;20562;-80
2021/08/14 01:13:54;;;;;;;3.50;3.07;;;;;;;18.94;100.00;97190.44;5071543;28;20321;-81
2021/08/14 01:16:22;;;;;;;4.77;4.13;;;;;;;18.77;100.00;97176.56;5072351;28;20273;-81
2021/08/14 01:18:51;;;;;;;3.87;3.57;;;;;;;18.76;100.00;97177.56;5072004;28;20197;-81
2021/08/14 01:21:20;;;;;;;3.67;3.37;;;;;;;18.59;100.00;97180.59;5072101;28;20229;-81
2021/08/14 01:23:47;;;;;;;3.50;3.00;;;;;;;18.57;100.00;97170.16;5071827;28;20275;-81
2021/08/14 01:26:15;;;;;;;3.57;3.27;;;;;;;18.51;100.00;97178.88;5071627;28;20282;-81
2021/08/14 01:28:44;;;;;;;5.43;3.20;;;;;;;18.53;100.00;97182.16;5071609;28;20197;-81
2021/08/14 01:31:13;;;;;;;5.60;3.80;;;;;;;18.58;100.00;97181.63;5072281;28;20280;-81
2021/08/14 01:33:42;;;;;;;3.67;3.33;;;;;;;18.68;100.00;97182.16;5071518;28;20237;-81
2021/08/14 01:36:10;;;;;;;5.13;3.50;;;;;;;18.59;100.00;97178.75;5071792;28;20247;-81
2021/08/14 01:38:45;;;;;;;4.03;3.13;;;;;;;18.47;100.00;97178.44;5071790;28;20197;-81
2021/08/14 01:41:12;;;;;;;4.83;2.93;;;;;;;18.47;100.00;97172.28;5071720;28;20632;-81
2021/08/14 01:44:09;;;;;;;3.73;3.23;;;;;;;18.43;100.00;97165.69;5071498;28;20207;-81
2021/08/14 01:46:41;;;;;;;4.00;3.43;;;;;;;18.57;100.00;97161.34;5025467;28;20293;-81
2021/08/14 01:49:08;;;;;;;3.93;3.10;;;;;;;18.55;100.00;97166.84;5073290;28;20185;-81
2021/08/14 01:51:36;;;;;;;3.40;3.10;;;;;;;18.45;100.00;97160.97;5075541;28;20288;-82
2021/08/14 01:54:05;;;;;;;3.67;3.37;;;;;;;18.40;100.00;97155.41;5075296;28;20229;-81
2021/08/14 01:56:34;;;;;;;3.90;3.50;;;;;;;18.41;100.00;97168.50;5075525;28;20208;-81
2021/08/14 01:59:01;;;;;;;5.97;5.03;;;;;;;18.28;100.00;97161.19;5075284;28;20197;-80
2021/08/14 02:01:30;;;;;;;5.57;3.70;;;;;;;18.25;100.00;97158.06;5075467;28;20700;-81
2021/08/14 02:03:58;;;;;;;3.97;3.40;;;;;;;18.32;100.00;97158.97;5075173;28;20280;-81
2021/08/14 02:06:27;;;;;;;3.10;2.80;;;;;;;18.29;100.00;97159.38;5075230;28;20691;-81
2021/08/14 02:08:55;;;;;;;4.67;3.47;;;;;;;18.33;100.00;97154.50;5075077;28;20207;-81
2021/08/14 02:11:25;;;;;;;4.90;3.83;;;;;;;18.21;100.00;97160.28;5075180;28;20587;-80
2021/08/14 02:13:53;;;;;;;4.83;3.20;;;;;;;18.23;100.00;97155.59;5074828;28;20201;-81
2021/08/14 02:16:21;;;;;;;4.60;3.43;;;;;;;18.30;100.00;97156.50;5075417;28;20201;-81
2021/08/14 02:18:51;;;;;;;4.13;3.47;;;;;;;18.23;100.00;97155.59;5075184;28;20682;-81
2021/08/14 02:21:18;;;;;;;4.10;3.80;;;;;;;18.33;100.00;97157.97;5075278;28;20193;-81
2021/08/14 02:23:45;;;;;;;5.93;3.80;;;;;;;18.29;100.00;97154.88;5074796;28;20199;-81
2021/08/14 02:26:13;;;;;;;5.70;4.17;;;;;;;18.12;100.00;97148.09;5074489;28;20197;-81
2021/08/14 02:28:40;;;;;;;4.50;3.63;;;;;;;18.08;100.00;97145.97;5075001;28;20197;-81
2021/08/14 02:31:07;;;;;;;11.87;3.57;;;;;;;18.22;100.00;97142.47;5074877;28;20243;-81
2021/08/14 02:33:35;;;;;;;4.63;3.73;;;;;;;18.08;100.00;97138.84;5074921;28;20247;-81
2021/08/14 02:36:06;;;;;;;4.13;3.83;;;;;;;18.10;100.00;97138.63;5074511;28;20723;-81
2021/08/14 02:38:34;;;;;;;4.57;4.00;;;;;;;17.94;100.00;97140.50;5074895;28;20189;-81
2021/08/14 02:41:02;;;;;;;5.20;3.90;;;;;;;17.85;100.00;97138.09;5074740;28;20281;-81
2021/08/14 02:43:29;;;;;;;4.37;3.67;;;;;;;18.00;100.00;97138.91;5074410;28;20284;-80
2021/08/14 02:46:00;;;;;;;6.17;4.20;;;;;;;17.91;100.00;97140.84;5074695;28;20280;-80
2021/08/14 02:48:27;;;;;;;3.50;3.07;;;;;;;17.95;100.00;97136.81;5074422;28;20206;-80
2021/08/14 02:50:54;;;;;;;4.23;3.90;;;;;;;17.87;100.00;97139.53;5074451;28;20208;-80
2021/08/14 02:53:23;;;;;;;4.13;3.73;;;;;;;17.86;100.00;97137.91;5074161;28;20292;-80
2021/08/14 02:55:51;;;;;;;5.93;2.97;;;;;;;17.78;100.00;97145.97;5078896;28;20200;-79
2021/08/14 02:58:19;;;;;;;4.57;3.23;;;;;;;17.86;100.00;97137.09;5094120;28;20231;-80
2021/08/14 03:00:46;;;;;;;3.47;3.17;;;;;;;17.94;100.00;97145.81;5093249;28;20204;-80
2021/08/14 03:03:14;;;;;;;4.50;3.77;;;;;;;17.74;100.00;97142.00;5094355;28;20200;-79
2021/08/14 03:05:41;;;;;;;5.27;3.43;;;;;;;17.67;100.00;97144.56;5094707;28;20200;-79
2021/08/14 03:08:09;;;;;;;4.77;4.27;;;;;;;17.72;100.00;97144.84;5093932;28;20246;-79
2021/08/14 03:10:39;;;;;;;4.37;3.97;;;;;;;17.61;100.00;97145.28;5094355;28;20204;-79
2021/08/14 03:13:07;;;;;;;5.67;3.70;;;;;;;17.66;100.00;97150.03;5094064;28;20236;-80
2021/08/14 03:15:35;;;;;;;4.33;3.93;;;;;;;17.70;100.00;97140.69;5094125;28;20203;-79
2021/08/14 03:18:02;;;;;;;6.53;3.83;;;;;;;17.56;100.00;97142.31;5094018;28;20566;-79
2021/08/14 03:20:29;;;;;;;9.43;4.70;;;;;;;17.53;100.00;97140.88;5094338;28;20218;-79
2021/08/14 03:22:57;;;;;;;5.97;3.90;;;;;;;17.38;100.00;97139.19;5094117;28;20233;-79
2021/08/14 03:25:24;;;;;;;4.43;4.00;;;;;;;17.35;100.00;97135.91;5094074;28;20703;-80
2021/08/14 03:27:53;;;;;;;4.77;3.93;;;;;;;17.45;100.00;97137.47;5093494;28;20222;-79
2021/08/14 03:30:20;;;;;;;7.97;3.87;;;;;;;17.37;100.00;97135.72;5093988;28;20239;-80
2021/08/14 03:32:48;;;;;;;5.03;4.30;;;;;;;17.42;100.00;97137.81;5093716;28;20214;-80
2021/08/14 03:35:16;;;;;;;7.53;3.60;;;;;;;17.38;100.00;97136.53;5093887;28;20196;-80
2021/08/14 03:37:44;;;;;;;5.80;3.83;;;;;;;17.47;100.00;97144.25;5093764;28;20192;-79
2021/08/14 03:40:13;;;;;;;6.03;4.10;;;;;;;17.43;100.00;97147.47;5093602;28;20290;-80
2021/08/14 03:42:40;;;;;;;4.77;4.27;;;;;;;17.25;100.00;97150.41;5093863;28;20661;-80
2021/08/14 03:45:09;;;;;;;7.07;4.23;;;;;;;17.37;100.00;97153.50;5093922;28;20192;-79
2021/08/14 03:47:37;;;;;;;6.63;4.00;;;;;;;17.33;100.00;97148.53;5093149;28;20220;-79
2021/08/14 03:50:07;;;;;;;4.80;4.30;;;;;;;17.33;100.00;97145.88;5093558;28;20203;-79
2021/08/14 03:52:35;;;;;;;5.13;4.30;;;;;;;17.36;100.00;97147.34;5093582;28;20185;-79
2021/08/14 03:55:03;;;;;;;5.07;4.57;;;;;;;17.34;100.00;97150.16;5092838;28;20238;-79
2021/08/14 03:57:30;;;;;;;4.27;3.73;;;;;;;17.34;100.00;97154.66;5093310;28;20196;-80
2021/08/14 03:59:58;;;;;;;5.10;4.67;;;;;;;17.32;100.00;97141.56;5093429;28;20195;-80
2021/08/14 04:02:26;;;;;;;4.97;4.20;;;;;;;17.32;100.00;97144.22;5093228;28;20196;-81
2021/08/14 04:04:54;;;;;;;6.10;4.27;;;;;;;17.18;100.00;97138.84;5093118;28;20193;-80
2021/08/14 04:07:21;;;;;;;6.53;5.07;;;;;;;17.25;100.00;97135.31;5092429;28;20220;-80
2021/08/14 04:09:48;;;;;;;6.27;4.60;;;;;;;17.28;100.00;97134.13;5093334;28;20283;-80
2021/08/14 04:12:16;;;;;;;5.20;4.80;;;;;;;17.43;100.00;97126.19;5092463;28;20291;-79
2021/08/14 04:14:43;;;;;;;5.13;4.63;;;;;;;17.67;100.00;97125.13;5092907;28;20745;-79
2021/08/14 04:17:10;;;;;;;4.47;4.07;;;;;;;17.67;100.00;97133.13;5092644;28;20200;-79
2021/08/14 04:19:39;;;;;;;7.97;5.37;;;;;;;17.77;100.00;97136.38;5092586;28;20192;-80
2021/08/14 04:22:06;;;;;;;5.77;5.30;;;;;;;17.63;100.00;97134.47;5092384;28;20270;-79
2021/08/14 04:24:33;;;;;;;5.87;5.00;;;;;;;17.78;100.00;97136.16;5092759;28;20196;-80
2021/08/14 04:27:01;;;;;;;5.53;5.00;;;;;;;17.87;100.00;97131.56;5092130;28;20311;-80
2021/08/14 04:29:29;;;;;;;8.40;5.73;;;;;;;18.00;100.00;97131.75;5092598;28;20745;-80
2021/08/14 04:31:57;;;;;;;5.87;5.33;;;;;;;17.96;100.00;97134.97;5092320;28;20292;-79
2021/08/14 04:34:24;;;;;;;5.60;5.10;;;;;;;18.05;100.00;97139.22;5092858;28;20215;-79
2021/08/14 04:36:52;;;;;;;8.43;5.30;;;;;;;18.07;100.00;97126.53;5092451;28;20204;-80
2021/08/14 04:39:20;;;;;;;7.90;5.53;;;;;;;18.12;100.00;97134.78;5092000;28;20275;-79
2021/08/14 04:41:47;;;;;;;7.57;5.77;;;;;;;18.16;100.00;97136.06;5092270;28;20202;-79
2021/08/14 04:44:14;;;;;;;8.57;5.50;;;;;;;18.20;100.00;97137.34;5092607;28;20635;-79
2021/08/14 04:46:41;;;;;;;8.73;5.53;;;;;;;18.25;100.00;97137.63;5092044;28;20200;-79
2021/08/14 04:49:08;;;;;;;5.90;5.30;;;;;;;18.15;100.00;97141.56;5092530;28;20303;-79
2021/08/14 04:51:36;;;;;;;8.20;6.63;;;;;;;18.12;100.00;97142.78;5092567;28;20200;-78
2021/08/14 04:54:04;;;;;;;7.53;6.83;;;;;;;18.14;100.00;97140.75;5091683;28;20267;-78
2021/08/14 04:56:33;;;;;;;8.17;5.97;;;;;;;18.19;100.00;97133.03;5092146;28;20202;-78
2021/08/14 04:59:00;;;;;;;6.63;6.03;;;;;;;18.20;100.00;97133.88;5092099;28;20680;-79
2021/08/14 05:01:28;;;;;;;7.20;5.90;;;;;;;18.25;100.00;97134.97;5091830;28;20211;-79
2021/08/14 05:03:55;;;;;;;6.60;5.70;;;;;;;18.35;100.00;97133.84;5092251;28;20635;-79
2021/08/14 05:06:22;;;;;;;7.53;5.70;;;;;;;18.38;100.00;97136.13;5092268;28;20637;-79
2021/08/14 05:08:49;;;;;;;8.90;5.67;;;;;;;18.42;100.00;97138.22;5091848;28;20220;-79
2021/08/14 05:11:18;;;;;;;6.20;5.60;;;;;;;18.56;100.00;97136.53;5091639;28;20200;-79
2021/08/14 05:13:45;;;;;;;6.80;5.80;;;;;;;18.67;100.00;97141.41;5091967;28;20278;-78
2021/08/14 05:16:12;;;;;;;6.67;5.67;;;;;;;18.77;100.00;97138.44;5092171;28;20196;-79
2021/08/14 05:18:39;;;;;;;6.07;5.40;;;;;;;18.78;100.00;97140.09;5091933;28;20195;-79
2021/08/14 05:21:07;;;;;;;6.40;5.57;;;;;;;18.93;100.00;97140.88;5092175;28;20356;-79
2021/08/14 05:23:34;;;;;;;6.63;5.50;;;;;;;19.04;100.00;97144.84;5091287;28;20231;-79
2021/08/14 05:26:01;;;;;;;4.90;4.37;;;;;;;19.09;100.00;97146.97;5092340;28;20192;-78
2021/08/14 05:28:30;;;;;;;6.73;4.87;;;;;;;19.14;100.00;97145.38;5091703;28;20273;-78
2021/08/14 05:30:57;;;;;;;5.20;4.70;;;;;;;19.22;100.00;97145.25;5091677;28;20287;-78
2021/08/14 05:33:24;;;;;;;8.40;4.77;;;;;;;19.35;100.00;97144.53;5091754;28;20232;-78
2021/08/14 05:35:51;;;;;;;7.87;4.70;;;;;;;19.45;100.00;97145.00;5091891;28;20196;-79
2021/08/14 05:38:19;;;;;;;5.67;4.40;;;;;;;19.61;100.00;97148.44;5091677;28;20664;-79
2021/08/14 05:40:46;;;;;;;5.70;4.43;;;;;;;19.70;100.00;97141.94;5054126;28;20202;-79
2021/08/14 05:43:13;;;;;;;4.77;4.37;;;;;;;19.82;100.00;97151.06;5051455;28;20666;-81
2021/08/14 05:45:42;;;;;;;4.67;4.27;;;;;;;19.93;100.00;97152.34;5051606;28;20237;-80
2021/08/14 05:48:10;;;;;;;5.37;3.90;;;;;;;20.02;100.00;97156.53;5051288;28;20225;-80
2021/08/14 05:50:37;;;;;;;4.80;4.30;;;;;;;20.09;100.00;97152.06;5051577;28;20300;-80
2021/08/14 05:53:04;;;;;;;5.50;4.13;;;;;;;20.17;100.00;97159.88;5051178;28;20204;-80
2021/08/14 05:55:32;;;;;;;4.40;3.80;;;;;;;20.28;100.00;97155.00;5051869;28;20604;-81
2021/08/14 05:57:59;;;;;;;6.63;4.47;;;;;;;20.33;100.00;97155.22;5051628;28;20194;-80
2021/08/14 06:00:26;;;;;;;5.07;4.30;;;;;;;20.50;100.00;97155.72;5051539;28;20431;-80
2021/08/14 06:02:55;;;;;;;4.33;3.93;;;;;;;20.58;100.00;97159.09;5051174;28;20670;-81
2021/08/14 06:05:22;;;;;;;4.63;4.00;;;;;;;20.58;100.00;97158.25;5051773;28;20194;-80
2021/08/14 06:07:50;;;;;;;3.80;3.50;;;;;;;20.83;100.00;97161.22;5050857;28;20706;-81
2021/08/14 06:10:18;;;;;;;5.30;4.87;;;;;;;20.90;100.00;97167.41;5051320;28;20256;-81
2021/08/14 06:12:46;;;;;;;7.87;4.80;;;;;;;21.07;100.00;97168.66;5051388;28;20249;-81
2021/08/14 06:15:14;;;;;;;6.27;3.67;;;;;;;21.08;100.00;97164.13;5051518;28;20201;-80
2021/08/14 06:17:41;;;;;;;5.10;4.60;;;;;;;21.25;100.00;97172.59;5050980;28;20285;-81
2021/08/14 06:20:12;;;;;;;7.40;4.97;;;;;;;21.39;100.00;97163.59;5050901;28;20288;-81
2021/08/14 06:22:40;;;;;;;5.07;4.63;;;;;;;21.44;100.00;97157.59;5051425;28;20552;-82
2021/08/14 06:25:09;;;;;;;7.87;4.73;;;;;;;21.40;100.00;97164.41;5051205;28;20205;-81
2021/08/14 06:27:37;;;;;;;5.57;5.10;;;;;;;21.49;100.00;97164.00;5050941;28;20225;-82
2021/08/14 06:30:06;;;;;;;6.30;4.87;;;;;;;21.81;100.00;97164.19;5050898;28;20202;-80
2021/08/14 06:32:34;;;;;;;4.73;4.20;;;;;;;21.91;100.00;97164.59;5051236;28;20228;-81
2021/08/14 06:35:01;;;;;;;5.53;4.33;;;;;;;22.02;100.00;97163.94;5052588;28;20293;-81
2021/08/14 06:37:30;;;;;;;4.37;4.00;;;;;;;22.28;100.00;97168.44;5054557;28;20202;-80
2021/08/14 06:40:00;;;;;;;6.90;4.97;;;;;;;22.57;100.00;97168.13;5054933;28;20277;-80
2021/08/14 06:42:27;;;;;;;4.67;4.27;;;;;;;22.92;100.00;97181.97;5054563;28;20202;-81
2021/08/14 06:44:54;;;;;;;7.03;4.67;;;;;;;22.82;100.00;97179.75;5054755;28;20255;-80
2021/08/14 06:47:21;;;;;;;5.73;4.50;;;;;;;23.01;100.00;97175.38;5054335;28;20202;-80
2021/08/14 06:49:48;;;;;;;4.20;3.83;;;;;;;23.15;100.00;97168.91;5054234;28;20218;-80
2021/08/14 06:52:16;;;;;;;4.53;4.13;;;;;;;23.45;100.00;97169.09;5052317;28;20214;-80
2021/08/14 06:54:44;;;;;;;4.63;4.20;;;;;;;23.39;100.00;97174.50;5052171;28;20237;-80
2021/08/14 06:57:12;;;;;;;5.87;3.77;;;;;;;23.43;100.00;97175.72;5052320;28;20197;-80
2021/08/14 06:59:39;;;;;;;10.43;4.37;;;;;;;23.48;100.00;97181.22;5052105;28;20897;-80
2021/08/14 07:02:07;;;;;;;4.33;3.87;;;;;;;23.65;100.00;97181.50;5053172;28;20280;-81
2021/08/14 07:04:35;;;;;;;6.73;3.90;;;;;;;23.88;100.00;97178.25;5053288;28;20200;-81
2021/08/14 07:07:02;;;;;;;6.37;3.60;;;;;;;23.94;100.00;97178.19;5054086;28;20252;-81
2021/08/14 07:09:29;;;;;;;4.47;3.67;;;;;;;24.06;100.00;97178.28;5054241;28;20225;-81
2021/08/14 07:11:58;;;;;;;6.03;4.23;;;;;;;24.13;100.00;97183.59;5053856;28;20201;-81
2021/08/14 07:14:25;;;;;;;4.40;3.93;;;;;;;24.37;100.00;97184.56;5054171;28;20690;-81
2021/08/14 07:16:52;;;;;;;4.03;3.67;;;;;;;24.67;100.00;97193.56;5053736;28;20201;-81
2021/08/14 07:19:19;;;;;;;4.20;3.80;;;;;;;24.92;100.00;97196.13;5053991;28;20201;-81
2021/08/14 07:21:47;;;;;;;5.70;3.87;;;;;;;24.86;100.00;97197.03;5053731;28;20288;-80
2021/08/14 07:24:14;;;;;;;3.87;3.60;;;;;;;25.07;100.00;97203.78;5053907;28;20804;-80
2021/08/14 07:26:41;;;;;;;3.53;3.23;;;;;;;25.19;100.00;97211.13;5053830;28;20244;-80
2021/08/14 07:29:10;;;;;;;4.57;4.17;;;;;;;25.16;100.00;97201.63;5053400;28;20312;-81
2021/08/14 07:31:37;;;;;;;4.90;4.00;;;;;;;25.30;100.00;97204.97;5053776;28;20223;-81
2021/08/14 07:34:04;;;;;;;13.13;4.57;;;;;;;25.51;100.00;97209.81;5053669;28;20259;-81
2021/08/14 07:36:31;;;;;;;5.30;4.40;;;;;;;25.73;100.00;97202.00;5053649;28;20369;-80
2021/08/14 07:38:59;;;;;;;4.30;3.90;;;;;;;25.95;100.00;97210.38;5053511;28;20205;-81
2021/08/14 07:41:26;;;;;;;4.93;4.37;;;;;;;26.24;100.00;97200.53;5053894;28;20241;-80
2021/08/14 07:43:53;;;;;;;6.30;4.43;;;;;;;26.97;100.00;97201.78;5053383;28;20642;-81
2021/08/14 07:46:22;;;;;;;5.32;3.95;;;;;;;27.30;100.00;97210.28;5052726;28;20194;-80
2021/08/14 07:48:49;;;;;;;4.57;4.18;;;;;;;27.76;100.00;97211.09;5053183;28;20261;-81
2021/08/14 07:51:16;;;;;;;4.97;4.47;;;;;;;27.70;100.00;97210.13;5053354;28;20698;-81
2021/08/14 07:53:43;;;;;;;4.78;4.10;;;;;;;27.69;100.00;97209.31;5052703;28;20273;-81
2021/08/14 07:56:11;;;;;;;6.05;4.60;;;;;;;28.10;100.00;97204.59;5053617;28;20280;-81
2021/08/14 07:58:38;;;;;;;5.15;4.00;;;;;;;27.92;100.00;97202.16;5053072;28;20220;-81
2021/08/14 08:01:05;;;;;;;4.90;4.40;;;;;;;27.87;100.00;97204.78;5052795;28;20201;-81
2021/08/14 08:03:34;;;;;;;5.00;4.60;;;;;;;28.36;100.00;97197.66;5052703;28;20766;-80
2021/08/14 08:06:01;;;;;;;4.88;4.47;;;;;;;28.28;100.00;97197.28;5053436;28;20256;-81
2021/08/14 08:08:28;;;;;;;6.22;4.80;;;;;;;28.41;100.00;97184.25;5053116;28;20676;-80
2021/08/14 08:10:56;;;;;;;8.15;4.30;;;;;;;28.29;100.00;97188.91;5053115;28;20198;-81
2021/08/14 08:13:23;;;;;;;4.75;4.35;;;;;;;28.67;100.00;97195.38;5052824;28;20198;-80
2021/08/14 08:15:50;;;;;;;4.60;4.28;;;;;;;28.70;100.00;97196.78;5053247;28;20223;-81
2021/08/14 08:18:17;;;;;;;4.07;3.78;;;;;;;28.35;100.00;97187.09;5053023;28;20233;-81
2021/08/14 08:20:46;;;;;;;5.45;4.95;;;;;;;28.45;100.00;97179.16;5052780;28;20193;-80
2021/08/14 08:23:13;;;;;;;5.88;5.28;;;;;;;28.67;100.00;97181.84;5052705;28;20198;-80
2021/08/14 08:25:41;;;;;;;5.90;5.32;;;;;;;28.68;100.00;97180.78;5052753;28;20238;-81
2021/08/14 08:28:08;;;;;;;4.70;4.30;;;;;;;29.26;100.00;97187.41;5052509;28;20296;-81
2021/08/14 08:30:35;;;;;;;5.65;4.78;;;;;;;28.71;100.00;97187.59;5052447;28;20252;-81
2021/08/14 08:33:02;;;;;;;4.60;4.30;;;;;;;28.20;100.00;97185.00;5052795;28;20229;-80
2021/08/14 08:35:30;;;;;;;4.63;4.22;;;;;;;28.74;100.00;97177.06;5052893;28;20197;-81
2021/08/14 08:37:58;;;;;;;7.93;4.53;;;;;;;29.36;100.00;97181.28;5052118;28;20206;-81
2021/08/14 08:40:26;;;;;;;5.93;4.53;;;;;;;29.45;100.00;97184.34;5052464;28;20281;-80
2021/08/14 08:42:53;;;;;;;5.07;4.35;;;;;;;29.74;100.00;97174.06;5052291;28;20678;-81
2021/08/14 08:45:20;;;;;;;8.38;4.90;;;;;;;29.77;100.00;97170.81;5052410;28;20202;-81
2021/08/14 08:47:48;;;;;;;5.30;4.90;;;;;;;29.56;100.00;97169.81;5052263;28;20201;-81
2021/08/14 08:50:15;;;;;;;8.68;4.93;;;;;;;29.52;100.00;97166.00;5052031;28;20228;-81
2021/08/14 08:52:44;;;;;;;5.43;4.93;;;;;;;29.48;100.00;97163.00;5052071;28;20202;-81
2021/08/14 08:55:14;;;;;;;6.57;4.80;;;;;;;28.67;100.00;97158.31;5052059;28;20234;-81
2021/08/14 08:57:41;;;;;;;7.90;4.60;;;;;;;29.60;100.00;97160.13;5051343;28;20208;-81
2021/08/14 09:00:14;;;;;;;5.53;4.72;;;;;;;29.09;100.00;97165.03;5051770;28;20202;-81
2021/08/14 09:02:42;;;;;;;5.63;5.10;;;;;;;28.21;100.00;97165.84;5052030;28;20617;-81
2021/08/14 09:05:14;;;;;;;5.45;4.82;;;;;;;27.72;100.00;97176.44;5052013;28;20626;-81
2021/08/14 09:07:42;;;;;;;7.43;4.70;;;;;;;27.42;100.00;97163.25;5051599;28;20192;-80
2021/08/14 09:10:13;;;;;;;5.47;5.03;;;;;;;26.97;100.00;97158.63;5052145;28;20233;-81
2021/08/14 09:12:42;;;;;;;6.05;4.72;;;;;;;26.62;100.00;97166.03;5051890;28;20186;-80
2021/08/14 09:15:16;;;;;;;5.32;4.90;;;;;;;26.41;100.00;97159.38;5051951;28;20197;-81
2021/08/14 09:17:44;;;;;;;6.80;4.82;;;;;;;26.40;100.00;97157.75;5052053;28;20241;-80
2021/08/14 09:20:14;;;;;;;7.47;5.72;;;;;;;26.49;100.00;97156.34;5051668;28;20189;-81
2021/08/14 09:22:44;;;;;;;7.40;6.65;;;;;;;26.61;100.00;97156.31;5051981;28;20206;-80
2021/08/14 09:25:19;;;;;;;9.05;6.30;;;;;;;26.62;100.00;97147.97;5051788;28;20205;-80
2021/08/14 09:27:51;;;;;;;8.27;5.32;;;;;;;26.43;100.00;97144.63;5051957;28;20185;-81
2021/08/14 09:30:18;;;;;;;6.65;5.63;;;;;;;26.32;100.00;97146.28;5051453;28;20229;-81
2021/08/14 09:33:06;;;;;;;5.13;4.72;;;;;;;26.14;100.00;97137.50;5051519;28;20201;-80
2021/08/14 09:35:34;;;;;;;5.35;4.85;;;;;;;26.08;100.00;97137.41;5051795;28;20638;-80
2021/08/14 09:38:06;;;;;;;5.43;4.93;;;;;;;26.99;100.00;97134.13;5051426;28;20194;-80
2021/08/14 09:40:42;;;;;;;10.05;4.95;;;;;;;26.69;100.00;97140.56;5051532;28;20190;-80
2021/08/14 09:43:10;;;;;;;5.97;5.38;;;;;;;27.18;100.00;97126.66;5051409;28;20204;-80
2021/08/14 09:45:38;;;;;;;4.93;4.53;;;;;;;26.93;100.00;97135.09;5051699;28;20750;-80
2021/08/14 09:48:16;;;;;;;5.47;4.35;;;;;;;26.74;100.00;97131.75;5051444;28;20674;-81
2021/08/14 09:50:44;;;;;;;8.30;4.90;;;;;;;26.60;100.00;97141.19;5051636;28;20206;-79
2021/08/14 09:53:17;;;;;;;7.05;4.90;;;;;;;26.63;100.00;97133.44;5051136;28;20205;-81
2021/08/14 09:55:47;;;;;;;5.07;4.68;;;;;;;26.68;100.00;97133.56;5051602;28;20196;-81
2021/08/14 09:58:20;;;;;;;5.03;4.50;;;;;;;26.54;100.00;97132.19;5051404;28;20571;-81
2021/08/14 10:00:49;;;;;;;5.00;4.60;;;;;;;26.54;100.00;97124.09;5051378;28;20570;-80
2021/08/14 10:03:20;;;;;;;5.00;4.55;;;;;;;27.13;100.00;97116.59;5051296;28;20204;-81
2021/08/14 10:05:47;;;;;;;4.75;4.45;;;;;;;27.92;100.00;97115.72;5051959;28;20194;-80
2021/08/14 10:08:14;;;;;;;4.78;4.25;;;;;;;28.07;100.00;97124.03;5051479;28;20205;-80
2021/08/14 10:10:42;;;;;;;4.88;4.38;;;;;;;28.24;100.00;97117.75;5053666;28;20228;-81
2021/08/14 10:13:13;;;;;;;4.93;4.53;;;;;;;28.46;100.00;97115.91;5055348;28;20582;-80
2021/08/14 10:15:40;;;;;;;5.80;4.18;;;;;;;28.85;100.00;97116.63;5055491;28;20191;-80
2021/08/14 10:18:08;;;;;;;4.60;4.20;;;;;;;29.15;100.00;97120.72;5054765;28;20204;-80
2021/08/14 10:20:35;;;;;;;7.20;4.32;;;;;;;29.21;100.00;97121.59;5055493;28;20607;-80
2021/08/14 10:23:04;;;;;;;5.30;4.40;;;;;;;29.47;100.00;97115.28;5054928;28;20202;-81
2021/08/14 10:25:34;;;;;;;6.75;4.38;;;;;;;29.48;100.00;97116.09;5055119;28;20194;-81
2021/08/14 10:28:02;;;;;;;7.05;4.05;;;;;;;29.78;100.00;97107.44;5054594;28;20280;-80
2021/08/14 10:30:39;;;;;;;4.35;3.95;;;;;;;29.57;100.00;97109.16;5054860;28;20232;-81
2021/08/14 10:33:07;;;;;;;4.68;4.28;;;;;;;29.61;100.00;97113.00;5054849;28;20186;-81
2021/08/14 10:35:38;;;;;;;4.70;4.35;;;;;;;29.56;100.00;97102.91;5054855;28;20288;-81
2021/08/14 10:38:26;;;;;;;5.25;4.53;;;;;;;28.89;100.00;97100.69;5054518;28;20244;-80
2021/08/14 10:41:02;;;;;;;4.55;4.15;;;;;;;29.33;100.00;97097.84;5054499;28;20194;-81
2021/08/14 10:44:05;;;;;;;4.30;3.90;;;;;;;29.03;100.00;97110.06;5054938;28;20227;-81
2021/08/14 10:46:43;;;;;;;3.97;3.67;;;;;;;28.52;100.00;97103.25;5054702;28;20574;-81
2021/08/14 10:49:12;;;;;;;4.60;4.20;;;;;;;29.07;100.00;97097.66;5054523;28;20217;-81
2021/08/14 10:52:11;;;;;;;4.35;4.05;;;;;;;29.69;100.00;97081.91;5054531;28;20201;-81
2021/08/14 10:55:04;;;;;;;5.45;4.47;;;;;;;29.99;100.00;97083.97;5054103;28;20299;-80
2021/08/14 10:57:55;;;;;;;4.38;4.07;;;;;;;29.98;100.00;97085.88;5050500;28;20202;-80
2021/08/14 11:00:25;;;;;;;3.70;3.40;;;;;;;30.12;100.00;97091.63;5035876;28;20281;-80
2021/08/14 11:03:07;;;;;;;4.28;3.88;;;;;;;29.63;100.00;97080.25;5054167;28;20200;-81
2021/08/14 11:05:35;;;;;;;9.93;4.80;;;;;;;29.40;100.00;97093.03;5054371;28;20222;-81
2021/08/14 11:08:04;;;;;;;4.05;3.75;;;;;;;29.60;100.00;97092.41;5054112;28;20194;-81
2021/08/14 11:10:36;;;;;;;4.30;3.75;;;;;;;29.81;100.00;97087.94;5054212;28;20234;-80
2021/08/14 11:13:24;;;;;;;4.55;4.13;;;;;;;29.48;100.00;97079.03;5054065;28;20202;-80
2021/08/14 11:15:51;;;;;;;4.28;3.97;;;;;;;29.76;100.00;97072.47;5053877;28;20205;-81
2021/08/14 11:18:53;;;;;;;4.03;3.47;;;;;;;29.61;100.00;97064.25;5053899;28;20201;-81
2021/08/14 11:21:41;;;;;;;4.65;4.32;;;;;;;29.49;100.00;97083.38;5052844;28;20177;-81
2021/08/14 11:24:09;;;;;;;4.40;4.03;;;;;;;29.43;100.00;97076.28;5054017;28;20193;-80
2021/08/14 11:26:38;;;;;;;3.95;3.38;;;;;;;29.79;100.00;97069.25;5053846;28;20205;-80
2021/08/14 11:29:07;;;;;;;4.30;3.90;;;;;;;29.69;100.00;97076.50;5053641;28;20198;-81
2021/08/14 11:31:34;;;;;;;5.78;4.60;;;;;;;30.15;100.00;97064.00;5053896;28;20205;-81